Airfield :







YOU CAN JOIN US ON...

 
LOGIN :

Register | Disclaimer

   EN    FR    IT 

 









Legend :    VFR   Marginal VFR   IFR   Intensive IFR   Very Intensive IFR
Visi :
Ceiling :
>= 8 km
>= 3000ft
5 to 8 km
1000 to 3000 ft
1500m to 5 km
500 to 1000 ft
800 to 1500m
200 to 500 ft
< 800m
< 200 ft
Symbols :   Thunderstorms  Fog  Heavy snow  Heavy precipitations  Wind > 20 kt







- Airport Elevation : 534 ft
- IATA code : PQI


KPQI - Northern Maine Regional Arpt At Presque Isle

CURRENT METAR :
  • 192156Z AUTO 15007KT 10SM FEW021 SCT027 OVC042 11/07 A3006 RMK AO2 SLP206 T01060072

EXPIRED METARs :
  • 192056Z AUTO 19007KT 10SM OVC050 12/07 A3006 RMK AO2 SLP208 T01170067 58003
  • 191956Z AUTO 21005KT 10SM OVC055 12/06 A3007 RMK AO2 SLP212 T01220061

TAF KPQI
Valid from the 19 at 18:00 until the 20 at 18:00 UTC


191733Z 1918/2018 20008KT P6SM OVC100
FM192300 16006KT P6SM VCSH OVC035
FM200200 14007KT 5SM -RA OVC020
FM200900 12011KT 3SM -RA OVC008
FM201600 15009KT 5SM -RA OVC010
KZBW FIR / North America



MET'MAP, your aeronautical weather chart ! - Copyright ORBIFLY December 2007 - Disclaimer

ORBIFLY MET'MAP TEAM :

Programming & Development : Alexandra Zaïnal
Concept & Development : Baudouin d'Aumeries
Co-Development & Prog : Marc-Olivier Méhu
Technical & hardware support : Manuel Goepfert

Contact : metmap@orbifly.com




SOURCES & CREDITS :

   NOAA